Time;durP1;ratioP1;P1;durP2;ratioP2;P2;SDS_P1;SDS_P2;PMS_P1;PMS_P2;Temp;Humidity;BMP_temperature;BMP_pressure;BME280_temperature;BME280_humidity;BME280_pressure;Samples;Min_cycle;Max_cycle;Signal;HPM_P1;HPM_P2
2023/10/17 00:00:38;;;;;;;0.00;0.00;;;11.60;66.90;;;;;;5025127;28;20200;-30
2023/10/17 00:03:10;;;;;;;0.00;0.00;;;11.60;66.90;;;;;;5012587;28;20295;-30
2023/10/17 00:05:41;;;;;;;0.00;0.00;;;11.60;66.90;;;;;;5028271;28;20734;-30
2023/10/17 00:08:09;;;;;;;0.00;0.00;;;11.60;66.80;;;;;;5010570;28;20731;-30
2023/10/17 00:10:40;;;;;;;0.00;0.00;;;11.60;67.60;;;;;;5024871;28;20217;-31
2023/10/17 00:13:23;;;;;;;0.00;0.00;;;11.60;66.90;;;;;;5026700;28;20220;-30
2023/10/17 00:15:52;;;;;;;0.00;0.00;;;11.60;66.90;;;;;;5031806;28;20286;-30
2023/10/17 00:18:25;;;;;;;0.00;0.00;;;11.50;66.80;;;;;;5031252;28;20362;-31
2023/10/17 00:20:53;;;;;;;0.00;0.00;;;11.50;66.90;;;;;;5027104;28;20205;-30
2023/10/17 00:23:20;;;;;;;0.00;0.00;;;11.50;66.80;;;;;;5009797;28;20202;-31
2023/10/17 00:25:52;;;;;;;0.00;0.00;;;11.50;66.90;;;;;;4992865;28;20315;-31
2023/10/17 00:28:22;;;;;;;0.00;0.00;;;11.50;66.90;;;;;;5007198;28;20285;-30
2023/10/17 00:30:54;;;;;;;0.00;0.00;;;11.50;66.90;;;;;;4990357;28;20240;-30
2023/10/17 00:33:28;;;;;;;0.00;0.00;;;11.50;66.90;;;;;;5007904;28;20334;-31
2023/10/17 00:36:03;;;;;;;0.00;0.00;;;11.50;67.00;;;;;;5006621;28;20529;-30
2023/10/17 00:38:35;;;;;;;0.00;0.00;;;11.50;67.00;;;;;;5007888;28;20216;-31
2023/10/17 00:41:06;;;;;;;0.00;0.00;;;11.50;67.00;;;;;;5012699;28;20700;-30
2023/10/17 00:43:38;;;;;;;0.00;0.00;;;11.50;67.10;;;;;;5026524;28;20201;-30
2023/10/17 00:46:08;;;;;;;0.00;0.00;;;11.50;67.10;;;;;;5027562;28;20758;-30
2023/10/17 00:48:47;;;;;;;0.00;0.00;;;11.50;67.10;;;;;;5025615;28;20197;-31
2023/10/17 00:51:21;;;;;;;0.00;0.00;;;11.50;67.10;;;;;;5021433;28;20212;-30
2023/10/17 00:53:49;;;;;;;0.00;0.00;;;11.40;67.00;;;;;;5007275;28;20197;-30
2023/10/17 00:56:20;;;;;;;0.00;0.00;;;11.50;67.10;;;;;;5005493;28;20202;-30
2023/10/17 00:58:51;;;;;;;0.00;0.00;;;11.40;67.10;;;;;;5006164;28;20229;-31
2023/10/17 01:01:20;;;;;;;0.00;0.00;;;11.50;67.10;;;;;;5004542;28;20229;-30
2023/10/17 01:03:52;;;;;;;0.00;0.00;;;11.50;67.10;;;;;;5009403;28;20690;-30
2023/10/17 01:09:18;;;;;;;0.00;0.00;;;11.50;67.20;;;;;;5010622;28;20418;-30
2023/10/17 01:11:48;;;;;;;0.00;0.00;;;11.50;67.10;;;;;;5027799;28;20208;-30
2023/10/17 01:14:18;;;;;;;0.00;0.00;;;11.50;67.20;;;;;;5029259;28;20307;-30
2023/10/17 01:16:46;;;;;;;0.00;0.00;;;11.50;67.20;;;;;;5015766;28;20203;-31
2023/10/17 01:19:19;;;;;;;0.00;0.00;;;11.50;67.20;;;;;;5029567;28;20215;-30
2023/10/17 01:21:46;;;;;;;0.00;0.00;;;11.40;67.20;;;;;;5024126;28;20210;-30
2023/10/17 01:24:16;;;;;;;0.00;0.00;;;11.50;67.10;;;;;;5018156;28;20217;-30
2023/10/17 01:26:46;;;;;;;0.00;0.00;;;11.50;67.10;;;;;;5025021;28;20335;-30
2023/10/17 01:29:18;;;;;;;0.00;0.00;;;11.50;67.10;;;;;;5026100;28;20660;-30
2023/10/17 01:31:50;;;;;;;0.00;0.00;;;11.40;67.10;;;;;;5025690;28;20221;-31
2023/10/17 01:34:25;;;;;;;0.00;0.00;;;11.40;67.10;;;;;;5020174;28;20220;-30
2023/10/17 01:36:53;;;;;;;0.00;0.00;;;11.40;67.10;;;;;;5005050;28;20193;-30
2023/10/17 01:39:20;;;;;;;0.00;0.00;;;11.40;67.20;;;;;;5006529;28;20236;-30
2023/10/17 01:41:50;;;;;;;0.00;0.00;;;11.50;67.30;;;;;;5009883;28;20547;-30
2023/10/17 01:44:19;;;;;;;0.00;0.00;;;11.40;67.20;;;;;;5025715;28;20205;-30
2023/10/17 01:46:47;;;;;;;0.00;0.00;;;11.50;67.30;;;;;;5026439;28;20225;-30
2023/10/17 01:49:19;;;;;;;0.00;0.00;;;11.50;67.20;;;;;;5024663;28;20193;-30
2023/10/17 01:51:51;;;;;;;0.00;0.00;;;11.50;67.30;;;;;;5023836;28;20235;-30
2023/10/17 01:54:18;;;;;;;0.00;0.00;;;11.40;67.20;;;;;;5004386;28;20201;-30
2023/10/17 01:56:48;;;;;;;0.00;0.00;;;11.40;67.20;;;;;;5005834;28;20209;-30
2023/10/17 01:59:26;;;;;;;0.00;0.00;;;11.40;67.20;;;;;;5025161;28;20236;-30
2023/10/17 02:01:59;;;;;;;0.00;0.00;;;11.40;67.20;;;;;;5021857;28;20237;-30
2023/10/17 02:04:26;;;;;;;0.00;0.00;;;11.40;67.20;;;;;;5025762;28;20663;-30
2023/10/17 02:06:57;;;;;;;0.00;0.00;;;11.40;67.20;;;;;;5027948;28;20307;-30
2023/10/17 02:12:01;;;;;;;0.00;0.00;;;11.40;67.30;;;;;;5042258;28;20836;-31
2023/10/17 02:14:37;;;;;;;0.00;0.00;;;11.40;67.40;;;;;;5028402;28;20296;-31
2023/10/17 02:17:09;;;;;;;0.00;0.00;;;11.40;67.40;;;;;;5028986;28;20197;-31
2023/10/17 02:19:39;;;;;;;0.00;0.00;;;11.40;67.30;;;;;;5043245;28;20200;-30
2023/10/17 02:22:09;;;;;;;0.00;0.00;;;11.40;67.30;;;;;;5027626;28;20304;-30
2023/10/17 02:24:40;;;;;;;0.00;0.00;;;11.40;67.40;;;;;;5010153;28;20233;-30
2023/10/17 02:27:12;;;;;;;0.00;0.00;;;11.40;67.40;;;;;;5007556;28;20201;-30
2023/10/17 02:29:46;;;;;;;0.00;0.00;;;11.40;67.30;;;;;;5023009;28;20204;-30
2023/10/17 02:32:13;;;;;;;0.00;0.00;;;11.40;67.40;;;;;;5008806;28;20217;-30
2023/10/17 02:34:43;;;;;;;0.00;0.00;;;11.40;67.30;;;;;;5007652;28;20197;-30
2023/10/17 02:37:17;;;;;;;0.00;0.00;;;11.40;67.30;;;;;;5005932;28;20227;-30
2023/10/17 02:39:44;;;;;;;0.00;0.00;;;11.40;67.30;;;;;;5006165;28;20212;-30
2023/10/17 02:42:11;;;;;;;0.00;0.00;;;11.40;67.30;;;;;;5007029;28;20209;-31
2023/10/17 02:44:43;;;;;;;0.00;0.00;;;11.40;67.40;;;;;;4988501;28;20212;-30
2023/10/17 02:47:15;;;;;;;0.00;0.00;;;11.30;67.30;;;;;;5005790;28;20205;-30
2023/10/17 02:49:46;;;;;;;0.00;0.00;;;11.40;67.40;;;;;;5003874;28;20221;-30
2023/10/17 02:52:17;;;;;;;0.00;0.00;;;11.30;67.30;;;;;;5005299;28;20772;-30
2023/10/17 02:54:57;;;;;;;0.00;0.00;;;11.30;67.20;;;;;;5004338;28;20197;-30
2023/10/17 02:57:27;;;;;;;0.00;0.00;;;11.30;67.30;;;;;;5012426;28;20535;-30
2023/10/17 02:59:57;;;;;;;0.00;0.00;;;11.30;67.30;;;;;;5014298;28;20360;-30
2023/10/17 03:02:36;;;;;;;0.00;0.00;;;11.30;67.30;;;;;;5009152;28;20258;-30
2023/10/17 03:05:11;;;;;;;0.00;0.00;;;11.30;67.40;;;;;;5028623;28;20203;-30
2023/10/17 03:07:42;;;;;;;0.00;0.00;;;11.30;67.30;;;;;;5027937;28;20698;-30
2023/10/17 03:10:20;;;;;;;0.00;0.00;;;11.30;67.40;;;;;;5042532;28;20199;-31
2023/10/17 03:13:03;;;;;;;0.00;0.00;;;11.30;67.40;;;;;;5007965;28;20304;-30
2023/10/17 03:15:30;;;;;;;0.00;0.00;;;11.30;67.40;;;;;;5028291;28;20261;-31
2023/10/17 03:18:00;;;;;;;0.00;0.00;;;11.30;67.40;;;;;;5027392;28;20233;-30
2023/10/17 03:20:41;;;;;;;0.00;0.00;;;11.30;67.40;;;;;;5025827;28;20435;-30
2023/10/17 03:23:09;;;;;;;0.00;0.00;;;11.30;67.40;;;;;;5022169;28;20680;-30
2023/10/17 03:25:40;;;;;;;0.00;0.00;;;11.30;67.30;;;;;;5041300;28;20224;-30
2023/10/17 03:28:16;;;;;;;0.00;0.00;;;11.20;67.30;;;;;;5022242;28;20222;-30
2023/10/17 03:30:43;;;;;;;0.00;0.00;;;11.20;67.30;;;;;;5029610;28;20683;-30
2023/10/17 03:33:26;;;;;;;0.00;0.00;;;11.20;67.30;;;;;;5031090;28;20308;-30
2023/10/17 03:38:32;;;;;;;0.00;0.00;;;11.20;67.30;;;;;;5028607;28;20239;-31
2023/10/17 03:41:23;;;;;;;0.00;0.00;;;11.20;67.40;;;;;;5009998;28;20205;-30
2023/10/17 03:43:53;;;;;;;0.00;0.00;;;11.20;67.40;;;;;;5014377;28;20208;-30
2023/10/17 03:46:25;;;;;;;0.00;0.00;;;11.20;67.40;;;;;;5029707;28;20200;-30
2023/10/17 03:49:00;;;;;;;0.00;0.00;;;11.20;67.40;;;;;;5029209;28;20189;-35
2023/10/17 03:51:27;;;;;;;0.00;0.00;;;11.20;67.40;;;;;;5040621;28;20566;-31
2023/10/17 03:54:07;;;;;;;0.00;0.00;;;11.20;67.40;;;;;;5028866;28;20217;-36
2023/10/17 03:56:45;;;;;;;0.00;0.00;;;11.20;67.40;;;;;;5017798;28;20200;-30
2023/10/17 04:01:48;;;;;;;0.00;0.00;;;11.20;67.40;;;;;;5014439;28;20235;-30
2023/10/17 04:04:31;;;;;;;0.00;0.00;;;11.20;67.40;;;;;;5012777;28;20196;-30
2023/10/17 04:06:59;;;;;;;0.00;0.00;;;11.20;67.40;;;;;;5014117;28;20224;-30
2023/10/17 04:09:31;;;;;;;0.00;0.00;;;11.20;67.40;;;;;;5017310;28;20317;-31
2023/10/17 04:12:03;;;;;;;0.00;0.00;;;11.20;67.40;;;;;;5030909;28;20866;-30
2023/10/17 04:14:50;;;;;;;0.00;0.00;;;11.20;67.40;;;;;;5027834;28;20201;-30
2023/10/17 04:17:23;;;;;;;0.00;0.00;;;11.20;67.40;;;;;;5014531;28;20209;-31
2023/10/17 04:19:58;;;;;;;0.00;0.00;;;11.20;67.40;;;;;;5016052;28;21078;-30
2023/10/17 04:22:29;;;;;;;0.00;0.00;;;11.10;67.30;;;;;;5020560;28;20192;-30
2023/10/17 04:25:00;;;;;;;0.00;0.00;;;11.10;67.40;;;;;;5013800;28;20680;-30
2023/10/17 04:27:34;;;;;;;0.00;0.00;;;11.10;67.30;;;;;;5014455;28;20855;-32
2023/10/17 04:30:14;;;;;;;0.00;0.00;;;11.10;67.40;;;;;;5021934;28;20201;-30
2023/10/17 04:32:43;;;;;;;0.00;0.00;;;11.10;67.40;;;;;;5047429;28;20192;-31
2023/10/17 04:35:12;;;;;;;0.00;0.00;;;11.10;67.40;;;;;;5028735;28;20280;-30
2023/10/17 04:37:44;;;;;;;0.00;0.00;;;11.10;67.40;;;;;;5026384;28;20203;-30
2023/10/17 04:40:28;;;;;;;0.00;0.00;;;11.10;67.30;;;;;;5025156;28;20233;-30
2023/10/17 04:45:27;;;;;;;0.00;0.00;;;11.10;67.40;;;;;;5012466;28;20189;-30
2023/10/17 04:48:12;;;;;;;0.00;0.00;;;11.10;67.30;;;;;;5006636;28;20213;-30
2023/10/17 04:50:56;;;;;;;0.00;0.00;;;11.10;67.30;;;;;;5010529;28;20698;-30
2023/10/17 04:53:35;;;;;;;0.00;0.00;;;11.10;68.10;;;;;;5026870;28;20222;-30
2023/10/17 05:01:35;;;;;;;0.00;0.00;;;11.10;67.50;;;;;;5027943;28;20212;-30
2023/10/17 06:17:24;;;;;;;0.00;0.00;;;10.80;67.40;;;;;;5009106;28;20272;-31
2023/10/17 06:19:58;;;;;;;0.00;0.00;;;10.80;67.40;;;;;;5023767;28;20304;-30
2023/10/17 06:28:20;;;;;;;0.00;0.00;;;10.80;67.40;;;;;;5011667;28;20686;-30
2023/10/17 06:30:46;;;;;;;0.00;0.00;;;10.80;67.30;;;;;;5010212;28;20293;-30
2023/10/17 06:33:19;;;;;;;0.00;0.00;;;10.80;67.30;;;;;;5012305;28;20201;-31
2023/10/17 06:35:55;;;;;;;0.00;0.00;;;10.80;67.40;;;;;;5023146;28;20222;-31
2023/10/17 06:38:29;;;;;;;0.00;0.00;;;10.80;67.40;;;;;;5007310;28;20288;-31
2023/10/17 06:41:14;;;;;;;0.00;0.00;;;10.80;67.40;;;;;;4992784;28;20218;-30
2023/10/17 06:43:49;;;;;;;0.10;0.00;;;10.80;67.30;;;;;;5010161;28;20282;-30
2023/10/17 06:46:28;;;;;;;0.00;0.00;;;10.80;67.70;;;;;;5013833;28;20220;-30
2023/10/17 06:49:04;;;;;;;0.00;0.00;;;10.80;67.40;;;;;;5013736;28;20583;-31
2023/10/17 06:51:36;;;;;;;0.00;0.00;;;10.80;67.40;;;;;;5008979;28;20255;-30
2023/10/17 06:54:07;;;;;;;0.00;0.00;;;10.80;67.40;;;;;;5026260;28;20254;-31
2023/10/17 06:56:44;;;;;;;0.00;0.00;;;10.80;67.40;;;;;;5011351;28;20729;-30
2023/10/17 07:05:00;;;;;;;0.00;0.00;;;10.80;67.40;;;;;;5017091;28;20205;-30
2023/10/17 07:07:40;;;;;;;0.00;0.00;;;10.80;67.30;;;;;;5015511;28;20657;-30
2023/10/17 07:10:24;;;;;;;0.00;0.00;;;10.80;67.40;;;;;;5009041;28;20675;-31
2023/10/17 07:13:29;;;;;;;0.00;0.00;;;10.80;67.40;;;;;;5013631;28;20273;-30
2023/10/17 07:16:04;;;;;;;0.00;0.00;;;10.80;67.40;;;;;;5009235;28;20241;-30
2023/10/17 07:18:44;;;;;;;0.00;0.00;;;10.80;67.40;;;;;;5017589;28;20220;-30
2023/10/17 07:21:17;;;;;;;0.00;0.00;;;10.80;67.50;;;;;;5017842;28;20263;-30
2023/10/17 07:23:48;;;;;;;0.00;0.00;;;10.80;67.50;;;;;;5007514;28;20208;-30
2023/10/17 07:28:57;;;;;;;0.00;0.00;;;10.90;67.50;;;;;;5027872;28;20592;-30
2023/10/17 07:31:25;;;;;;;0.00;0.00;;;10.90;67.50;;;;;;5019640;28;20293;-30
2023/10/17 07:36:37;;;;;;;0.00;0.00;;;10.90;67.40;;;;;;5015528;28;20240;-31
2023/10/17 07:39:21;;;;;;;0.00;0.00;;;10.90;67.40;;;;;;5008730;28;20295;-31
2023/10/17 07:41:55;;;;;;;0.00;0.00;;;10.90;67.50;;;;;;5008789;28;20296;-30
2023/10/17 07:44:26;;;;;;;0.00;0.00;;;10.90;67.50;;;;;;5008026;28;20759;-30
2023/10/17 07:49:31;;;;;;;0.00;0.00;;;10.90;67.60;;;;;;5008274;28;20247;-30
2023/10/17 07:52:03;;;;;;;0.00;0.00;;;10.90;67.60;;;;;;5019464;28;20214;-30
2023/10/17 07:54:38;;;;;;;0.00;0.00;;;11.00;67.60;;;;;;4990149;28;20275;-31
2023/10/17 07:57:06;;;;;;;0.00;0.00;;;11.00;67.60;;;;;;5016498;28;20213;-30
2023/10/17 07:59:34;;;;;;;0.00;0.00;;;11.00;67.60;;;;;;5023682;28;20256;-30
2023/10/17 08:02:19;;;;;;;0.00;0.00;;;11.00;67.60;;;;;;5016131;28;20237;-30
2023/10/17 08:04:51;;;;;;;0.00;0.00;;;11.00;67.60;;;;;;5021547;28;20201;-30
2023/10/17 08:07:23;;;;;;;0.00;0.00;;;11.10;67.50;;;;;;5039602;28;20208;-31
2023/10/17 08:09:56;;;;;;;0.00;0.00;;;11.10;67.50;;;;;;5009468;28;20201;-30
2023/10/17 08:12:24;;;;;;;0.00;0.00;;;11.10;67.50;;;;;;5024516;28;20217;-30
2023/10/17 08:15:18;;;;;;;0.00;0.00;;;11.00;67.50;;;;;;5026363;28;20197;-31
2023/10/17 08:17:48;;;;;;;0.00;0.00;;;11.10;67.50;;;;;;5010308;28;20241;-30
2023/10/17 08:23:06;;;;;;;0.00;0.00;;;11.10;67.70;;;;;;5023551;28;20617;-30
2023/10/17 08:25:52;;;;;;;0.00;0.00;;;11.20;67.80;;;;;;5021716;28;20291;-34
2023/10/17 08:36:48;;;;;;;0.00;0.00;;;11.30;68.30;;;;;;5020506;28;20291;-30
2023/10/17 08:42:05;;;;;;;0.00;0.00;;;11.40;67.90;;;;;;5020898;28;20233;-31
2023/10/17 08:44:38;;;;;;;0.00;0.00;;;11.40;67.90;;;;;;5010482;28;20205;-30
2023/10/17 08:47:16;;;;;;;0.00;0.00;;;11.40;67.90;;;;;;5019889;28;20218;-30
2023/10/17 08:49:47;;;;;;;0.00;0.00;;;11.50;67.90;;;;;;5011470;28;20209;-30
2023/10/17 08:52:24;;;;;;;0.00;0.00;;;11.50;67.90;;;;;;5010951;28;20873;-30
2023/10/17 08:54:54;;;;;;;0.00;0.00;;;11.50;67.80;;;;;;5015000;28;20307;-31
2023/10/17 08:57:22;;;;;;;0.00;0.00;;;11.60;67.90;;;;;;5018709;28;20198;-31
2023/10/17 09:05:05;;;;;;;0.00;0.00;;;11.60;67.70;;;;;;5016634;28;20311;-30
2023/10/17 09:07:32;;;;;;;0.00;0.00;;;11.70;67.70;;;;;;5020820;28;20671;-30
2023/10/17 09:10:07;;;;;;;0.00;0.00;;;11.70;67.70;;;;;;5006800;28;20217;-30
2023/10/17 09:12:42;;;;;;;0.00;0.00;;;11.70;67.60;;;;;;5018439;28;20213;-30
2023/10/17 09:15:30;;;;;;;0.00;0.00;;;11.70;67.50;;;;;;5018950;28;20212;-30
2023/10/17 09:18:07;;;;;;;0.00;0.00;;;11.70;67.50;;;;;;5009546;28;20297;-30
2023/10/17 09:20:39;;;;;;;0.00;0.00;;;11.70;67.40;;;;;;5023560;28;20216;-30
2023/10/17 09:23:27;;;;;;;0.00;0.00;;;11.70;67.40;;;;;;5012613;28;20753;-30
2023/10/17 09:25:56;;;;;;;0.00;0.00;;;11.70;67.50;;;;;;5017247;28;20224;-30
2023/10/17 09:28:26;;;;;;;0.00;0.00;;;11.70;67.20;;;;;;5019304;28;20581;-30
2023/10/17 09:31:06;;;;;;;0.00;0.00;;;11.70;67.30;;;;;;5026171;28;20683;-30
2023/10/17 09:33:43;;;;;;;0.00;0.00;;;11.70;67.30;;;;;;5018198;28;20202;-30
2023/10/17 09:36:18;;;;;;;0.00;0.00;;;11.70;67.30;;;;;;5005154;28;20240;-30
2023/10/17 09:38:47;;;;;;;0.00;0.00;;;11.70;67.20;;;;;;5016692;28;20209;-30
2023/10/17 09:41:26;;;;;;;0.00;0.00;;;11.70;67.20;;;;;;5022241;28;20699;-30
2023/10/17 09:43:53;;;;;;;0.00;0.00;;;11.70;67.30;;;;;;5020488;28;20679;-30
2023/10/17 09:46:29;;;;;;;0.00;0.00;;;11.70;67.20;;;;;;5005875;28;20321;-30
2023/10/17 09:49:02;;;;;;;0.00;0.00;;;11.70;67.10;;;;;;5015890;28;20196;-30
2023/10/17 09:51:35;;;;;;;0.00;0.00;;;11.70;67.10;;;;;;5020359;28;20324;-31
2023/10/17 09:54:04;;;;;;;0.00;0.00;;;11.70;67.10;;;;;;5022148;28;21294;-31
2023/10/17 09:56:40;;;;;;;0.00;0.00;;;11.70;67.10;;;;;;5008281;28;20700;-30
2023/10/17 09:59:18;;;;;;;0.00;0.00;;;11.70;67.20;;;;;;5011542;28;20283;-30
2023/10/17 10:01:49;;;;;;;0.00;0.00;;;11.70;67.20;;;;;;5007061;28;20237;-30
2023/10/17 10:04:20;;;;;;;0.00;0.00;;;11.70;67.20;;;;;;5023010;28;20276;-30
2023/10/17 10:07:22;;;;;;;0.00;0.00;;;11.80;67.30;;;;;;4987398;28;20827;-30
2023/10/17 10:09:51;;;;;;;0.00;0.00;;;11.80;67.40;;;;;;5016347;28;20258;-30
2023/10/17 10:12:21;;;;;;;0.00;0.00;;;11.80;67.30;;;;;;5018277;28;20210;-30
2023/10/17 10:14:50;;;;;;;0.00;0.00;;;11.90;67.20;;;;;;5020180;28;20232;-32
2023/10/17 10:17:40;;;;;;;0.00;0.00;;;11.90;67.30;;;;;;5011917;28;20217;-33
2023/10/17 10:20:08;;;;;;;0.00;0.00;;;11.90;67.30;;;;;;5016082;28;20734;-33
2023/10/17 10:22:50;;;;;;;0.00;0.00;;;12.00;67.40;;;;;;5014771;28;20725;-32
2023/10/17 10:25:20;;;;;;;0.00;0.00;;;12.00;67.30;;;;;;5005433;28;20297;-32
2023/10/17 10:28:09;;;;;;;0.00;0.00;;;12.00;67.10;;;;;;5009926;28;20233;-32
2023/10/17 10:30:43;;;;;;;0.00;0.00;;;12.10;66.10;;;;;;5013066;28;20300;-32
2023/10/17 10:33:15;;;;;;;0.00;0.00;;;12.10;66.70;;;;;;5021225;28;20759;-32
2023/10/17 10:35:46;;;;;;;0.00;0.00;;;12.10;66.90;;;;;;4988769;28;20212;-32
2023/10/17 10:38:13;;;;;;;0.00;0.00;;;12.10;66.90;;;;;;5016457;28;20209;-32
2023/10/17 10:40:45;;;;;;;0.00;0.00;;;12.10;67.00;;;;;;5015847;28;20316;-33
2023/10/17 10:43:18;;;;;;;0.00;0.00;;;12.10;66.60;;;;;;5009279;28;20205;-32
2023/10/17 10:45:50;;;;;;;0.10;0.00;;;12.20;66.80;;;;;;5012285;28;20313;-33
2023/10/17 10:48:21;;;;;;;0.00;0.00;;;12.20;66.80;;;;;;5011549;28;20247;-34
2023/10/17 10:50:55;;;;;;;0.00;0.00;;;12.20;66.40;;;;;;5023873;28;20406;-33
2023/10/17 10:53:28;;;;;;;0.00;0.00;;;12.20;66.70;;;;;;5026257;28;20742;-32
2023/10/17 10:55:56;;;;;;;0.00;0.00;;;12.30;66.50;;;;;;5018263;28;20417;-32
2023/10/17 10:58:35;;;;;;;0.00;0.00;;;12.30;66.70;;;;;;5018186;28;20333;-32
2023/10/17 11:01:08;;;;;;;0.00;0.00;;;12.30;66.70;;;;;;5006432;28;20244;-32
2023/10/17 11:03:51;;;;;;;0.00;0.00;;;12.40;66.10;;;;;;5019256;28;20247;-32
2023/10/17 11:06:29;;;;;;;0.00;0.00;;;12.40;66.20;;;;;;5012887;28;20607;-32
2023/10/17 11:08:56;;;;;;;0.00;0.00;;;12.50;66.00;;;;;;5005275;28;20217;-32
2023/10/17 11:11:26;;;;;;;0.00;0.00;;;12.50;66.30;;;;;;5008811;28;20531;-32
2023/10/17 11:13:56;;;;;;;0.00;0.00;;;12.50;66.10;;;;;;5003638;28;20304;-32
2023/10/17 11:16:25;;;;;;;0.00;0.00;;;12.50;66.30;;;;;;5007999;28;20262;-32
2023/10/17 11:18:54;;;;;;;0.00;0.00;;;12.60;66.20;;;;;;5007407;28;20222;-32
2023/10/17 11:21:23;;;;;;;0.00;0.00;;;12.60;66.00;;;;;;5016946;28;20236;-32
2023/10/17 11:24:04;;;;;;;0.00;0.00;;;12.70;66.20;;;;;;5011888;28;20287;-32
2023/10/17 11:26:39;;;;;;;0.00;0.00;;;12.70;66.40;;;;;;5018910;28;20300;-32
2023/10/17 11:29:10;;;;;;;0.00;0.00;;;12.70;66.30;;;;;;5018637;28;20224;-32
2023/10/17 11:31:41;;;;;;;0.00;0.00;;;12.80;66.30;;;;;;5005852;28;20641;-32
2023/10/17 11:34:13;;;;;;;0.00;0.00;;;12.80;66.30;;;;;;5019357;28;20217;-32
2023/10/17 11:36:49;;;;;;;0.00;0.00;;;12.80;66.20;;;;;;5010374;28;20327;-32
2023/10/17 11:39:19;;;;;;;0.00;0.00;;;12.90;66.00;;;;;;5016454;28;20197;-32
2023/10/17 11:41:53;;;;;;;0.00;0.00;;;13.00;65.90;;;;;;5022358;28;20224;-32
2023/10/17 11:44:27;;;;;;;0.00;0.00;;;13.00;66.00;;;;;;5007428;28;20567;-33
2023/10/17 11:47:02;;;;;;;0.00;0.00;;;13.00;66.00;;;;;;5026652;28;20258;-32
2023/10/17 11:49:39;;;;;;;0.00;0.00;;;13.10;65.60;;;;;;5011010;28;20197;-32
2023/10/17 11:52:10;;;;;;;0.00;0.00;;;13.10;64.20;;;;;;5027812;28;20228;-32
2023/10/17 11:55:04;;;;;;;0.00;0.00;;;13.10;65.50;;;;;;5022430;28;20288;-32
2023/10/17 11:57:31;;;;;;;0.00;0.00;;;13.20;65.60;;;;;;5007958;28;20879;-32
2023/10/17 12:00:06;;;;;;;0.00;0.00;;;13.20;65.70;;;;;;5026498;28;20330;-32
2023/10/17 12:02:41;;;;;;;0.00;0.00;;;13.20;65.60;;;;;;5011836;28;20240;-32
2023/10/17 12:05:22;;;;;;;0.00;0.00;;;13.20;65.60;;;;;;5012872;28;20201;-32
2023/10/17 12:07:57;;;;;;;0.00;0.00;;;13.30;65.60;;;;;;5040177;28;20241;-32
2023/10/17 12:10:28;;;;;;;0.00;0.00;;;13.30;65.80;;;;;;5038466;28;20227;-32
2023/10/17 12:13:04;;;;;;;0.00;0.00;;;13.30;64.70;;;;;;5009044;28;20683;-32
2023/10/17 12:15:33;;;;;;;0.00;0.00;;;13.40;64.30;;;;;;5009811;28;20617;-32
2023/10/17 12:18:03;;;;;;;0.00;0.00;;;13.40;64.90;;;;;;5010836;28;20624;-32
2023/10/17 12:20:31;;;;;;;0.00;0.00;;;13.40;65.00;;;;;;5017420;28;20245;-32
2023/10/17 12:22:59;;;;;;;0.00;0.00;;;13.40;64.80;;;;;;5009595;28;20260;-32
2023/10/17 12:25:27;;;;;;;0.00;0.00;;;13.40;64.80;;;;;;5007357;28;20217;-32
2023/10/17 12:27:56;;;;;;;0.00;0.00;;;13.50;63.90;;;;;;5018044;28;20474;-32
2023/10/17 12:30:27;;;;;;;0.00;0.00;;;13.50;64.20;;;;;;5018879;28;20213;-32
2023/10/17 12:32:55;;;;;;;0.00;0.00;;;13.50;64.30;;;;;;5016683;28;20212;-32
2023/10/17 12:35:27;;;;;;;0.00;0.00;;;13.50;64.50;;;;;;5009285;28;20603;-32
2023/10/17 12:37:57;;;;;;;0.00;0.00;;;13.60;65.00;;;;;;5017018;28;20201;-32
2023/10/17 12:40:30;;;;;;;0.00;0.00;;;13.60;64.40;;;;;;5015642;28;20303;-32
2023/10/17 12:43:01;;;;;;;0.00;0.00;;;13.70;64.70;;;;;;5006153;28;20271;-32
2023/10/17 12:45:36;;;;;;;0.00;0.00;;;13.70;65.00;;;;;;5007069;28;20213;-32
2023/10/17 12:48:05;;;;;;;0.00;0.00;;;13.70;64.70;;;;;;5021416;28;20201;-32
2023/10/17 12:50:33;;;;;;;0.00;0.00;;;13.80;64.80;;;;;;5025217;28;20212;-32
2023/10/17 12:53:03;;;;;;;0.00;0.00;;;13.80;64.30;;;;;;5020933;28;20312;-32
2023/10/17 12:55:34;;;;;;;0.00;0.00;;;13.80;64.50;;;;;;5005542;28;20334;-32
2023/10/17 12:58:04;;;;;;;0.00;0.00;;;13.80;63.90;;;;;;5006289;28;20628;-32
2023/10/17 13:00:33;;;;;;;0.00;0.00;;;13.90;64.40;;;;;;5018980;28;20229;-32
2023/10/17 13:03:02;;;;;;;0.00;0.00;;;13.90;63.80;;;;;;5004931;28;20241;-32
2023/10/17 13:05:32;;;;;;;0.00;0.00;;;13.90;64.40;;;;;;5024184;28;20218;-32
2023/10/17 13:08:01;;;;;;;0.00;0.00;;;13.90;64.50;;;;;;5014578;28;20194;-32
2023/10/17 13:10:31;;;;;;;0.00;0.00;;;14.00;64.50;;;;;;5007145;28;20805;-32
2023/10/17 13:13:01;;;;;;;0.00;0.00;;;14.00;64.70;;;;;;5026782;28;20698;-32
2023/10/17 13:15:30;;;;;;;0.00;0.00;;;14.00;61.80;;;;;;5023358;28;20217;-32
2023/10/17 13:18:00;;;;;;;0.00;0.00;;;14.10;62.60;;;;;;5013259;28;20274;-32
2023/10/17 13:20:32;;;;;;;0.00;0.00;;;14.10;63.60;;;;;;5015307;28;20228;-32
2023/10/17 13:23:21;;;;;;;0.00;0.00;;;14.10;63.80;;;;;;5007936;28;20213;-32
2023/10/17 13:25:49;;;;;;;0.00;0.00;;;14.10;63.70;;;;;;5036627;28;20584;-32
2023/10/17 13:28:20;;;;;;;0.00;0.00;;;14.10;63.30;;;;;;5021246;28;20665;-32
2023/10/17 13:30:50;;;;;;;0.00;0.00;;;14.10;63.90;;;;;;5007640;28;20202;-32
2023/10/17 13:33:21;;;;;;;0.00;0.00;;;14.10;63.90;;;;;;5014517;28;20213;-32
2023/10/17 13:35:48;;;;;;;0.00;0.00;;;14.20;64.20;;;;;;5008153;28;20299;-31
2023/10/17 13:38:21;;;;;;;0.00;0.00;;;14.10;63.60;;;;;;5008551;28;20689;-32
2023/10/17 13:40:48;;;;;;;0.00;0.00;;;14.20;63.60;;;;;;5023508;28;20248;-32
2023/10/17 13:43:18;;;;;;;0.00;0.00;;;14.20;63.00;;;;;;5014621;28;20197;-32
2023/10/17 13:45:49;;;;;;;0.00;0.00;;;14.20;60.70;;;;;;5006790;28;20206;-32
2023/10/17 13:48:21;;;;;;;0.00;0.00;;;14.20;62.70;;;;;;5019436;28;20209;-32
2023/10/17 13:50:51;;;;;;;0.00;0.00;;;14.20;62.40;;;;;;5009902;28;20249;-32
2023/10/17 13:53:18;;;;;;;0.00;0.00;;;14.20;62.80;;;;;;5016177;28;20232;-32
2023/10/17 13:55:45;;;;;;;0.00;0.00;;;14.20;62.00;;;;;;5006728;28;20429;-32
2023/10/17 13:58:17;;;;;;;0.00;0.00;;;14.20;62.10;;;;;;5006034;28;20761;-32
2023/10/17 14:00:49;;;;;;;0.00;0.00;;;14.20;62.90;;;;;;5021380;28;20224;-33
2023/10/17 14:03:21;;;;;;;0.00;0.00;;;14.30;62.90;;;;;;5007260;28;20283;-32
2023/10/17 14:05:52;;;;;;;0.00;0.00;;;14.30;62.60;;;;;;5017057;28;20271;-32
2023/10/17 14:08:22;;;;;;;0.00;0.00;;;14.30;62.40;;;;;;5025507;28;20235;-32
2023/10/17 14:10:49;;;;;;;0.00;0.00;;;14.30;62.80;;;;;;5015781;28;20671;-32
2023/10/17 14:13:18;;;;;;;0.00;0.00;;;14.30;62.90;;;;;;5012625;28;20220;-32
2023/10/17 14:15:45;;;;;;;0.00;0.00;;;14.40;63.00;;;;;;5019890;28;20663;-32
2023/10/17 14:18:13;;;;;;;0.00;0.00;;;14.40;62.10;;;;;;5015246;28;20216;-33
2023/10/17 14:23:32;;;;;;;0.00;0.00;;;14.40;62.70;;;;;;5006068;28;20206;-32
2023/10/17 14:26:09;;;;;;;0.00;0.00;;;14.40;62.70;;;;;;5005679;28;20205;-33
2023/10/17 14:28:39;;;;;;;0.00;0.00;;;14.40;62.80;;;;;;5003369;28;20247;-33
2023/10/17 14:31:09;;;;;;;0.00;0.00;;;14.40;62.30;;;;;;5005948;28;20295;-32
2023/10/17 14:33:40;;;;;;;0.00;0.00;;;14.50;62.50;;;;;;5007725;28;20201;-32
2023/10/17 14:36:09;;;;;;;0.00;0.00;;;14.50;62.70;;;;;;5015264;28;20224;-32
2023/10/17 14:38:37;;;;;;;0.00;0.00;;;14.50;62.60;;;;;;5003936;28;20607;-32
2023/10/17 14:41:10;;;;;;;0.00;0.00;;;14.50;62.60;;;;;;5006813;28;20275;-33
2023/10/17 14:43:55;;;;;;;0.00;0.00;;;14.50;62.40;;;;;;5020029;28;20228;-32
2023/10/17 14:46:22;;;;;;;0.00;0.00;;;14.50;62.50;;;;;;5024918;28;20286;-32
2023/10/17 14:48:49;;;;;;;0.00;0.00;;;14.50;62.90;;;;;;5019190;28;20598;-32
2023/10/17 14:51:17;;;;;;;0.00;0.00;;;14.50;61.90;;;;;;5007681;28;20292;-32
2023/10/17 14:53:46;;;;;;;0.00;0.00;;;14.60;62.10;;;;;;5013071;28;20196;-32
2023/10/17 14:56:21;;;;;;;0.00;0.00;;;14.60;62.30;;;;;;5023329;28;20223;-32
2023/10/17 14:58:55;;;;;;;0.00;0.00;;;14.60;62.10;;;;;;5015280;28;20303;-32
2023/10/17 15:01:26;;;;;;;0.00;0.00;;;14.60;62.10;;;;;;5024688;28;20228;-32
2023/10/17 15:03:55;;;;;;;0.00;0.00;;;14.60;61.20;;;;;;5006845;28;20232;-32
2023/10/17 15:06:25;;;;;;;0.00;0.00;;;14.60;62.30;;;;;;5009445;28;20212;-32
2023/10/17 15:08:55;;;;;;;0.00;0.00;;;14.60;62.20;;;;;;5023041;28;20711;-32
2023/10/17 15:11:26;;;;;;;0.00;0.00;;;14.60;62.20;;;;;;5020536;28;20226;-33
2023/10/17 15:13:54;;;;;;;0.00;0.00;;;14.60;62.20;;;;;;5004043;28;20864;-32
2023/10/17 15:16:23;;;;;;;0.00;0.00;;;14.60;62.20;;;;;;5006114;28;20960;-32
2023/10/17 15:18:55;;;;;;;0.00;0.00;;;14.70;62.40;;;;;;5000978;28;20206;-32
2023/10/17 15:21:26;;;;;;;0.00;0.00;;;14.70;62.10;;;;;;5005394;28;20224;-32
2023/10/17 15:23:53;;;;;;;0.00;0.00;;;14.70;62.10;;;;;;5011974;28;20216;-32
2023/10/17 15:26:25;;;;;;;0.00;0.00;;;14.70;62.10;;;;;;5023131;28;20219;-32
2023/10/17 15:28:53;;;;;;;0.00;0.00;;;14.70;62.10;;;;;;5004282;28;20301;-32